sensor_id;sensor_type;location;lat;lon;timestamp;pressure;altitude;pressure_sealevel;temperature;humidity
29505;BME280;16452;54.174;12.092;2022-09-11T00:01:17;101346.81;;;18.48;100.00
29505;BME280;16452;54.174;12.092;2022-09-11T00:03:45;101346.06;;;18.46;100.00
29505;BME280;16452;54.174;12.092;2022-09-11T00:06:15;101356.06;;;18.54;100.00
29505;BME280;16452;54.174;12.092;2022-09-11T00:08:42;101344.16;;;18.48;100.00
29505;BME280;16452;54.174;12.092;2022-09-11T00:11:14;101344.00;;;18.74;100.00
29505;BME280;16452;54.174;12.092;2022-09-11T00:13:47;101344.50;;;18.79;100.00
29505;BME280;16452;54.174;12.092;2022-09-11T00:16:33;101329.59;;;18.78;100.00
29505;BME280;16452;54.174;12.092;2022-09-11T00:19:05;101343.63;;;18.67;100.00
29505;BME280;16452;54.174;12.092;2022-09-11T00:21:31;101346.38;;;18.55;100.00
29505;BME280;16452;54.174;12.092;2022-09-11T00:23:57;101342.94;;;18.41;100.00
29505;BME280;16452;54.174;12.092;2022-09-11T00:26:24;101342.78;;;18.67;100.00
29505;BME280;16452;54.174;12.092;2022-09-11T00:28:50;101347.81;;;18.59;100.00
29505;BME280;16452;54.174;12.092;2022-09-11T00:31:21;101349.50;;;18.60;100.00
29505;BME280;16452;54.174;12.092;2022-09-11T00:33:47;101357.84;;;18.54;100.00
29505;BME280;16452;54.174;12.092;2022-09-11T00:36:19;101356.13;;;18.76;100.00
29505;BME280;16452;54.174;12.092;2022-09-11T00:38:47;101353.34;;;18.67;100.00
29505;BME280;16452;54.174;12.092;2022-09-11T00:41:38;101355.16;;;18.77;100.00
29505;BME280;16452;54.174;12.092;2022-09-11T00:44:51;101352.53;;;19.00;100.00
29505;BME280;16452;54.174;12.092;2022-09-11T00:47:15;101353.28;;;18.91;100.00
29505;BME280;16452;54.174;12.092;2022-09-11T00:49:49;101346.41;;;18.77;100.00
29505;BME280;16452;54.174;12.092;2022-09-11T00:52:24;101358.44;;;18.81;100.00
29505;BME280;16452;54.174;12.092;2022-09-11T00:55:05;101356.28;;;18.86;100.00
29505;BME280;16452;54.174;12.092;2022-09-11T00:57:37;101344.03;;;19.07;100.00
29505;BME280;16452;54.174;12.092;2022-09-11T01:00:05;101354.22;;;19.12;100.00
29505;BME280;16452;54.174;12.092;2022-09-11T01:02:34;101352.19;;;19.04;100.00
29505;BME280;16452;54.174;12.092;2022-09-11T01:05:02;101348.47;;;18.84;100.00
29505;BME280;16452;54.174;12.092;2022-09-11T01:07:29;101350.63;;;19.02;100.00
29505;BME280;16452;54.174;12.092;2022-09-11T01:09:56;101355.06;;;18.90;100.00
29505;BME280;16452;54.174;12.092;2022-09-11T01:13:04;101348.56;;;19.16;100.00
29505;BME280;16452;54.174;12.092;2022-09-11T01:18:25;101351.09;;;18.96;100.00
29505;BME280;16452;54.174;12.092;2022-09-11T01:21:34;101356.13;;;18.99;100.00
29505;BME280;16452;54.174;12.092;2022-09-11T01:24:30;101344.38;;;19.14;100.00
29505;BME280;16452;54.174;12.092;2022-09-11T01:27:25;101349.56;;;19.04;100.00
29505;BME280;16452;54.174;12.092;2022-09-11T01:30:22;101339.59;;;19.19;100.00
29505;BME280;16452;54.174;12.092;2022-09-11T01:33:11;101344.97;;;19.17;100.00
29505;BME280;16452;54.174;12.092;2022-09-11T01:35:48;101349.19;;;19.20;100.00
29505;BME280;16452;54.174;12.092;2022-09-11T01:38:49;101358.31;;;19.27;100.00
29505;BME280;16452;54.174;12.092;2022-09-11T01:44:03;101359.63;;;18.99;100.00
29505;BME280;16452;54.174;12.092;2022-09-11T01:46:38;101359.97;;;19.17;100.00
29505;BME280;16452;54.174;12.092;2022-09-11T01:52:41;101352.41;;;18.79;100.00
29505;BME280;16452;54.174;12.092;2022-09-11T01:55:22;101357.34;;;18.83;100.00
29505;BME280;16452;54.174;12.092;2022-09-11T01:58:05;101357.59;;;19.03;100.00
29505;BME280;16452;54.174;12.092;2022-09-11T02:00:33;101356.63;;;18.93;100.00
29505;BME280;16452;54.174;12.092;2022-09-11T02:03:18;101363.72;;;18.92;100.00
29505;BME280;16452;54.174;12.092;2022-09-11T02:05:56;101363.25;;;18.98;100.00
29505;BME280;16452;54.174;12.092;2022-09-11T02:08:44;101370.06;;;18.90;100.00
29505;BME280;16452;54.174;12.092;2022-09-11T02:11:13;101361.78;;;18.94;100.00
29505;BME280;16452;54.174;12.092;2022-09-11T02:16:38;101367.19;;;18.93;100.00
29505;BME280;16452;54.174;12.092;2022-09-11T02:19:10;101367.91;;;18.95;100.00
29505;BME280;16452;54.174;12.092;2022-09-11T02:21:36;101364.66;;;18.69;100.00
29505;BME280;16452;54.174;12.092;2022-09-11T02:24:03;101376.75;;;18.71;100.00
29505;BME280;16452;54.174;12.092;2022-09-11T02:26:32;101372.34;;;18.83;100.00
29505;BME280;16452;54.174;12.092;2022-09-11T02:29:00;101375.22;;;18.91;100.00
29505;BME280;16452;54.174;12.092;2022-09-11T02:31:26;101383.63;;;18.74;100.00
29505;BME280;16452;54.174;12.092;2022-09-11T02:33:52;101376.41;;;18.76;100.00
29505;BME280;16452;54.174;12.092;2022-09-11T02:39:23;101373.56;;;19.01;100.00
29505;BME280;16452;54.174;12.092;2022-09-11T02:42:50;101383.66;;;19.07;100.00
29505;BME280;16452;54.174;12.092;2022-09-11T02:45:57;101380.41;;;19.04;100.00
29505;BME280;16452;54.174;12.092;2022-09-11T02:54:04;101383.25;;;18.78;100.00
29505;BME280;16452;54.174;12.092;2022-09-11T02:56:48;101379.19;;;18.85;100.00
29505;BME280;16452;54.174;12.092;2022-09-11T02:59:25;101376.66;;;18.95;100.00
29505;BME280;16452;54.174;12.092;2022-09-11T03:01:54;101385.31;;;18.97;100.00
29505;BME280;16452;54.174;12.092;2022-09-11T03:04:22;101383.75;;;18.83;100.00
29505;BME280;16452;54.174;12.092;2022-09-11T03:06:49;101386.63;;;18.80;100.00
29505;BME280;16452;54.174;12.092;2022-09-11T03:09:25;101387.97;;;18.97;100.00
29505;BME280;16452;54.174;12.092;2022-09-11T03:11:51;101387.09;;;18.74;100.00
29505;BME280;16452;54.174;12.092;2022-09-11T03:14:17;101399.13;;;18.90;100.00
29505;BME280;16452;54.174;12.092;2022-09-11T03:16:43;101392.53;;;18.95;100.00
29505;BME280;16452;54.174;12.092;2022-09-11T03:19:08;101391.31;;;18.99;100.00
29505;BME280;16452;54.174;12.092;2022-09-11T03:21:34;101393.25;;;18.97;100.00
29505;BME280;16452;54.174;12.092;2022-09-11T03:24:01;101390.34;;;19.00;100.00
29505;BME280;16452;54.174;12.092;2022-09-11T03:26:28;101391.19;;;18.90;100.00
29505;BME280;16452;54.174;12.092;2022-09-11T03:28:54;101394.63;;;18.68;100.00
29505;BME280;16452;54.174;12.092;2022-09-11T03:31:20;101400.72;;;18.57;100.00
29505;BME280;16452;54.174;12.092;2022-09-11T03:33:45;101401.38;;;18.83;100.00
29505;BME280;16452;54.174;12.092;2022-09-11T03:36:11;101393.34;;;18.84;100.00
29505;BME280;16452;54.174;12.092;2022-09-11T03:38:38;101390.97;;;18.93;100.00
29505;BME280;16452;54.174;12.092;2022-09-11T03:41:04;101387.34;;;19.05;100.00
29505;BME280;16452;54.174;12.092;2022-09-11T03:43:30;101395.53;;;18.91;100.00
29505;BME280;16452;54.174;12.092;2022-09-11T03:45:56;101388.81;;;18.98;100.00
29505;BME280;16452;54.174;12.092;2022-09-11T03:48:22;101385.34;;;19.08;100.00
29505;BME280;16452;54.174;12.092;2022-09-11T03:50:49;101390.38;;;19.11;100.00
29505;BME280;16452;54.174;12.092;2022-09-11T03:53:16;101393.38;;;19.18;100.00
29505;BME280;16452;54.174;12.092;2022-09-11T03:55:44;101388.34;;;19.26;100.00
29505;BME280;16452;54.174;12.092;2022-09-11T03:58:09;101391.44;;;18.98;100.00
29505;BME280;16452;54.174;12.092;2022-09-11T04:00:39;101390.25;;;19.02;100.00
29505;BME280;16452;54.174;12.092;2022-09-11T04:03:05;101394.41;;;18.82;100.00
29505;BME280;16452;54.174;12.092;2022-09-11T04:05:31;101386.41;;;19.06;100.00
29505;BME280;16452;54.174;12.092;2022-09-11T04:07:57;101396.59;;;19.10;100.00
29505;BME280;16452;54.174;12.092;2022-09-11T04:10:24;101394.47;;;19.15;100.00
29505;BME280;16452;54.174;12.092;2022-09-11T04:12:50;101386.66;;;19.14;100.00
29505;BME280;16452;54.174;12.092;2022-09-11T04:15:16;101385.69;;;19.15;100.00
29505;BME280;16452;54.174;12.092;2022-09-11T04:17:41;101384.00;;;19.25;100.00
29505;BME280;16452;54.174;12.092;2022-09-11T04:20:08;101389.03;;;19.06;100.00
29505;BME280;16452;54.174;12.092;2022-09-11T04:22:33;101388.09;;;19.18;100.00
29505;BME280;16452;54.174;12.092;2022-09-11T04:24:59;101393.16;;;19.21;100.00
29505;BME280;16452;54.174;12.092;2022-09-11T04:27:26;101398.53;;;19.31;100.00
29505;BME280;16452;54.174;12.092;2022-09-11T04:29:52;101396.47;;;19.34;100.00
29505;BME280;16452;54.174;12.092;2022-09-11T04:32:18;101394.56;;;19.25;100.00
29505;BME280;16452;54.174;12.092;2022-09-11T04:34:44;101399.28;;;19.21;100.00
29505;BME280;16452;54.174;12.092;2022-09-11T04:37:10;101399.59;;;19.06;100.00
29505;BME280;16452;54.174;12.092;2022-09-11T04:39:38;101401.38;;;18.94;100.00
29505;BME280;16452;54.174;12.092;2022-09-11T04:42:04;101404.75;;;18.85;100.00
29505;BME280;16452;54.174;12.092;2022-09-11T04:44:29;101406.75;;;18.81;100.00
29505;BME280;16452;54.174;12.092;2022-09-11T04:46:57;101398.59;;;18.73;100.00
29505;BME280;16452;54.174;12.092;2022-09-11T04:49:23;101407.78;;;18.92;100.00
29505;BME280;16452;54.174;12.092;2022-09-11T04:51:49;101407.00;;;18.67;100.00
29505;BME280;16452;54.174;12.092;2022-09-11T04:54:17;101403.44;;;18.91;100.00
29505;BME280;16452;54.174;12.092;2022-09-11T04:56:45;101405.25;;;18.90;100.00
29505;BME280;16452;54.174;12.092;2022-09-11T04:59:17;101402.13;;;19.07;100.00
29505;BME280;16452;54.174;12.092;2022-09-11T05:01:44;101403.56;;;19.00;100.00
29505;BME280;16452;54.174;12.092;2022-09-11T05:04:15;101409.22;;;19.07;100.00
29505;BME280;16452;54.174;12.092;2022-09-11T05:06:42;101412.31;;;18.90;100.00
29505;BME280;16452;54.174;12.092;2022-09-11T05:09:12;101413.63;;;18.84;100.00
29505;BME280;16452;54.174;12.092;2022-09-11T05:11:38;101413.16;;;18.90;100.00
29505;BME280;16452;54.174;12.092;2022-09-11T05:14:04;101409.94;;;18.86;100.00
29505;BME280;16452;54.174;12.092;2022-09-11T05:16:31;101415.91;;;18.88;100.00
29505;BME280;16452;54.174;12.092;2022-09-11T05:18:59;101419.25;;;18.79;100.00
29505;BME280;16452;54.174;12.092;2022-09-11T05:21:26;101417.84;;;18.86;100.00
29505;BME280;16452;54.174;12.092;2022-09-11T05:23:58;101418.41;;;18.79;100.00
29505;BME280;16452;54.174;12.092;2022-09-11T05:26:36;101420.25;;;18.90;100.00
29505;BME280;16452;54.174;12.092;2022-09-11T05:29:06;101420.97;;;18.92;100.00
29505;BME280;16452;54.174;12.092;2022-09-11T05:31:33;101423.63;;;18.92;100.00
29505;BME280;16452;54.174;12.092;2022-09-11T05:33:59;101423.94;;;18.87;100.00
29505;BME280;16452;54.174;12.092;2022-09-11T05:36:27;101429.50;;;19.06;100.00
29505;BME280;16452;54.174;12.092;2022-09-11T05:38:53;101437.06;;;19.00;100.00
29505;BME280;16452;54.174;12.092;2022-09-11T05:41:19;101440.09;;;18.71;100.00
29505;BME280;16452;54.174;12.092;2022-09-11T05:43:45;101440.44;;;19.02;100.00
29505;BME280;16452;54.174;12.092;2022-09-11T05:46:14;101443.19;;;19.11;100.00
29505;BME280;16452;54.174;12.092;2022-09-11T05:48:40;101450.41;;;19.09;100.00
29505;BME280;16452;54.174;12.092;2022-09-11T05:51:11;101446.69;;;19.12;100.00
29505;BME280;16452;54.174;12.092;2022-09-11T05:53:38;101450.53;;;19.30;100.00
29505;BME280;16452;54.174;12.092;2022-09-11T05:58:36;101457.03;;;19.37;100.00
29505;BME280;16452;54.174;12.092;2022-09-11T06:01:14;101466.22;;;19.66;100.00
29505;BME280;16452;54.174;12.092;2022-09-11T06:03:41;101468.50;;;19.60;100.00
29505;BME280;16452;54.174;12.092;2022-09-11T06:06:09;101477.00;;;19.63;100.00
29505;BME280;16452;54.174;12.092;2022-09-11T06:08:37;101472.19;;;19.46;100.00
29505;BME280;16452;54.174;12.092;2022-09-11T06:11:06;101472.09;;;19.70;100.00
29505;BME280;16452;54.174;12.092;2022-09-11T06:13:38;101467.91;;;19.56;100.00
29505;BME280;16452;54.174;12.092;2022-09-11T06:16:18;101471.72;;;19.86;100.00
29505;BME280;16452;54.174;12.092;2022-09-11T06:18:45;101482.31;;;19.86;100.00
29505;BME280;16452;54.174;12.092;2022-09-11T06:21:15;101476.50;;;19.81;100.00
29505;BME280;16452;54.174;12.092;2022-09-11T06:23:48;101474.34;;;19.97;100.00
29505;BME280;16452;54.174;12.092;2022-09-11T06:26:18;101474.78;;;20.13;100.00
29505;BME280;16452;54.174;12.092;2022-09-11T06:28:46;101477.50;;;19.91;100.00
29505;BME280;16452;54.174;12.092;2022-09-11T06:31:15;101474.22;;;19.98;100.00
29505;BME280;16452;54.174;12.092;2022-09-11T06:33:42;101490.09;;;19.98;100.00
29505;BME280;16452;54.174;12.092;2022-09-11T06:36:15;101498.03;;;19.54;100.00
29505;BME280;16452;54.174;12.092;2022-09-11T06:38:42;101495.16;;;19.57;100.00
29505;BME280;16452;54.174;12.092;2022-09-11T06:41:15;101503.06;;;19.57;100.00
29505;BME280;16452;54.174;12.092;2022-09-11T06:43:41;101504.41;;;19.51;100.00
29505;BME280;16452;54.174;12.092;2022-09-11T06:46:19;101501.91;;;19.61;100.00
29505;BME280;16452;54.174;12.092;2022-09-11T06:48:48;101503.41;;;19.41;100.00
29505;BME280;16452;54.174;12.092;2022-09-11T06:51:17;101504.88;;;19.45;100.00
29505;BME280;16452;54.174;12.092;2022-09-11T06:53:44;101505.88;;;19.55;100.00
29505;BME280;16452;54.174;12.092;2022-09-11T06:56:15;101502.38;;;19.66;100.00
29505;BME280;16452;54.174;12.092;2022-09-11T06:58:41;101505.34;;;19.39;100.00
29505;BME280;16452;54.174;12.092;2022-09-11T07:01:19;101511.38;;;19.52;100.00
29505;BME280;16452;54.174;12.092;2022-09-11T07:03:48;101517.50;;;19.53;100.00
29505;BME280;16452;54.174;12.092;2022-09-11T07:06:18;101510.63;;;19.39;100.00
29505;BME280;16452;54.174;12.092;2022-09-11T07:08:53;101507.63;;;19.33;100.00
29505;BME280;16452;54.174;12.092;2022-09-11T07:11:26;101516.25;;;19.35;100.00
29505;BME280;16452;54.174;12.092;2022-09-11T07:13:52;101515.63;;;19.09;100.00
29505;BME280;16452;54.174;12.092;2022-09-11T07:16:18;101519.09;;;19.09;100.00
29505;BME280;16452;54.174;12.092;2022-09-11T07:18:46;101508.69;;;19.30;100.00
29505;BME280;16452;54.174;12.092;2022-09-11T07:21:19;101515.19;;;19.37;100.00
29505;BME280;16452;54.174;12.092;2022-09-11T07:23:52;101513.75;;;19.33;100.00
29505;BME280;16452;54.174;12.092;2022-09-11T07:26:24;101509.34;;;19.56;100.00
29505;BME280;16452;54.174;12.092;2022-09-11T07:28:50;101518.94;;;19.46;100.00
29505;BME280;16452;54.174;12.092;2022-09-11T07:31:20;101525.25;;;19.21;100.00
29505;BME280;16452;54.174;12.092;2022-09-11T07:33:47;101524.16;;;19.23;100.00
29505;BME280;16452;54.174;12.092;2022-09-11T07:36:22;101520.69;;;19.34;100.00
29505;BME280;16452;54.174;12.092;2022-09-11T07:38:50;101512.69;;;19.47;100.00
29505;BME280;16452;54.174;12.092;2022-09-11T07:41:18;101516.25;;;19.35;100.00
29505;BME280;16452;54.174;12.092;2022-09-11T07:43:44;101523.69;;;19.29;100.00
29505;BME280;16452;54.174;12.092;2022-09-11T07:46:11;101520.78;;;19.56;100.00
29505;BME280;16452;54.174;12.092;2022-09-11T07:48:38;101517.81;;;19.37;100.00
29505;BME280;16452;54.174;12.092;2022-09-11T07:51:10;101513.78;;;19.66;100.00
29505;BME280;16452;54.174;12.092;2022-09-11T07:53:42;101517.50;;;19.75;100.00
29505;BME280;16452;54.174;12.092;2022-09-11T07:56:18;101508.03;;;19.73;100.00
29505;BME280;16452;54.174;12.092;2022-09-11T07:58:44;101523.78;;;19.74;100.00
29505;BME280;16452;54.174;12.092;2022-09-11T08:01:13;101526.44;;;19.85;100.00
29505;BME280;16452;54.174;12.092;2022-09-11T08:03:40;101536.88;;;19.76;100.00
29505;BME280;16452;54.174;12.092;2022-09-11T08:06:14;101531.94;;;19.82;100.00
29505;BME280;16452;54.174;12.092;2022-09-11T08:08:41;101536.75;;;19.99;100.00
29505;BME280;16452;54.174;12.092;2022-09-11T08:11:11;101536.25;;;20.05;100.00
29505;BME280;16452;54.174;12.092;2022-09-11T08:13:38;101539.25;;;20.12;100.00
29505;BME280;16452;54.174;12.092;2022-09-11T08:16:05;101538.44;;;20.00;100.00
29505;BME280;16452;54.174;12.092;2022-09-11T08:18:31;101544.06;;;20.18;100.00
29505;BME280;16452;54.174;12.092;2022-09-11T08:21:05;101549.72;;;20.25;100.00
29505;BME280;16452;54.174;12.092;2022-09-11T08:23:33;101549.84;;;20.01;100.00
29505;BME280;16452;54.174;12.092;2022-09-11T08:26:08;101545.84;;;20.29;100.00
29505;BME280;16452;54.174;12.092;2022-09-11T08:28:35;101552.59;;;20.44;100.00
29505;BME280;16452;54.174;12.092;2022-09-11T08:31:02;101549.78;;;20.57;100.00
29505;BME280;16452;54.174;12.092;2022-09-11T08:33:29;101551.41;;;20.37;99.61
29505;BME280;16452;54.174;12.092;2022-09-11T08:35:57;101551.88;;;20.42;97.66
29505;BME280;16452;54.174;12.092;2022-09-11T08:38:23;101560.03;;;20.28;98.36
29505;BME280;16452;54.174;12.092;2022-09-11T08:40:49;101549.53;;;20.60;97.88
29505;BME280;16452;54.174;12.092;2022-09-11T08:43:26;101555.56;;;20.50;96.65
29505;BME280;16452;54.174;12.092;2022-09-11T08:46:04;101561.16;;;20.68;95.98
29505;BME280;16452;54.174;12.092;2022-09-11T08:51:27;101562.97;;;20.79;96.17
29505;BME280;16452;54.174;12.092;2022-09-11T08:53:55;101562.13;;;20.78;97.52
29505;BME280;16452;54.174;12.092;2022-09-11T08:56:26;101567.91;;;21.04;95.47
29505;BME280;16452;54.174;12.092;2022-09-11T08:59:24;101570.06;;;20.78;97.52
29505;BME280;16452;54.174;12.092;2022-09-11T09:02:25;101571.09;;;20.87;97.34
29505;BME280;16452;54.174;12.092;2022-09-11T09:14:10;101569.88;;;20.91;96.53
29505;BME280;16452;54.174;12.092;2022-09-11T09:25:10;101578.22;;;20.86;94.99
29505;BME280;16452;54.174;12.092;2022-09-11T09:27:44;101581.47;;;21.11;95.19
29505;BME280;16452;54.174;12.092;2022-09-11T09:30:22;101579.84;;;21.30;92.48
29505;BME280;16452;54.174;12.092;2022-09-11T09:35:46;101589.22;;;21.35;92.23
29505;BME280;16452;54.174;12.092;2022-09-11T09:38:20;101574.72;;;21.59;89.86
29505;BME280;16452;54.174;12.092;2022-09-11T09:46:43;101588.94;;;21.38;89.55
29505;BME280;16452;54.174;12.092;2022-09-11T09:49:12;101585.75;;;21.02;90.68
29505;BME280;16452;54.174;12.092;2022-09-11T09:51:40;101588.16;;;20.73;91.51
29505;BME280;16452;54.174;12.092;2022-09-11T09:54:13;101599.13;;;21.01;92.42
29505;BME280;16452;54.174;12.092;2022-09-11T09:56:43;101597.03;;;21.15;92.15
29505;BME280;16452;54.174;12.092;2022-09-11T09:59:18;101596.66;;;21.20;92.30
29505;BME280;16452;54.174;12.092;2022-09-11T10:01:49;101595.94;;;21.39;91.86
29505;BME280;16452;54.174;12.092;2022-09-11T10:04:26;101592.25;;;21.51;89.85
29505;BME280;16452;54.174;12.092;2022-09-11T10:07:17;101587.91;;;21.50;89.87
29505;BME280;16452;54.174;12.092;2022-09-11T10:09:52;101593.09;;;21.51;90.17
29505;BME280;16452;54.174;12.092;2022-09-11T10:12:25;101590.63;;;21.39;91.36
29505;BME280;16452;54.174;12.092;2022-09-11T10:14:57;101591.56;;;21.49;92.13
29505;BME280;16452;54.174;12.092;2022-09-11T10:17:33;101593.91;;;21.72;91.75
29505;BME280;16452;54.174;12.092;2022-09-11T10:20:20;101595.75;;;21.72;91.01
29505;BME280;16452;54.174;12.092;2022-09-11T10:22:49;101596.63;;;21.61;91.41
29505;BME280;16452;54.174;12.092;2022-09-11T10:25:19;101597.06;;;21.36;92.55
29505;BME280;16452;54.174;12.092;2022-09-11T10:28:01;101602.22;;;21.58;90.95
29505;BME280;16452;54.174;12.092;2022-09-11T10:30:37;101602.03;;;21.71;90.90
29505;BME280;16452;54.174;12.092;2022-09-11T10:33:30;101596.72;;;21.71;89.83
29505;BME280;16452;54.174;12.092;2022-09-11T10:36:00;101592.16;;;21.83;88.89
29505;BME280;16452;54.174;12.092;2022-09-11T10:41:03;101600.47;;;21.48;89.88
29505;BME280;16452;54.174;12.092;2022-09-11T10:44:02;101600.03;;;21.43;90.29
29505;BME280;16452;54.174;12.092;2022-09-11T10:46:39;101593.94;;;21.31;91.23
29505;BME280;16452;54.174;12.092;2022-09-11T10:49:22;101597.75;;;21.59;91.03
29505;BME280;16452;54.174;12.092;2022-09-11T10:55:02;101604.22;;;21.24;92.07
29505;BME280;16452;54.174;12.092;2022-09-11T10:57:37;101599.75;;;21.46;91.73
29505;BME280;16452;54.174;12.092;2022-09-11T11:03:11;101609.41;;;21.47;91.27
29505;BME280;16452;54.174;12.092;2022-09-11T11:06:16;101615.34;;;21.39;90.98
29505;BME280;16452;54.174;12.092;2022-09-11T11:09:12;101612.09;;;21.15;92.54
29505;BME280;16452;54.174;12.092;2022-09-11T11:15:23;101612.75;;;21.69;89.86
29505;BME280;16452;54.174;12.092;2022-09-11T11:34:24;101614.91;;;21.55;90.10
29505;BME280;16452;54.174;12.092;2022-09-11T11:37:20;101617.81;;;21.52;91.67
29505;BME280;16452;54.174;12.092;2022-09-11T11:40:19;101623.81;;;21.33;91.87
29505;BME280;16452;54.174;12.092;2022-09-11T11:42:59;101629.44;;;21.40;92.31
29505;BME280;16452;54.174;12.092;2022-09-11T11:51:01;101636.56;;;21.39;94.31
29505;BME280;16452;54.174;12.092;2022-09-11T11:53:39;101619.03;;;21.68;93.77
29505;BME280;16452;54.174;12.092;2022-09-11T11:59:08;101631.28;;;21.60;94.79
29505;BME280;16452;54.174;12.092;2022-09-11T12:01:59;101635.03;;;21.78;92.85
29505;BME280;16452;54.174;12.092;2022-09-11T12:07:43;101638.81;;;21.23;94.66
29505;BME280;16452;54.174;12.092;2022-09-11T12:10:35;101636.81;;;21.36;93.76
29505;BME280;16452;54.174;12.092;2022-09-11T12:13:16;101640.03;;;21.19;95.84
29505;BME280;16452;54.174;12.092;2022-09-11T12:16:09;101632.72;;;21.32;92.96
29505;BME280;16452;54.174;12.092;2022-09-11T12:18:36;101643.22;;;21.34;94.03
29505;BME280;16452;54.174;12.092;2022-09-11T12:28:47;101636.06;;;21.66;93.31
29505;BME280;16452;54.174;12.092;2022-09-11T12:31:15;101644.31;;;21.72;91.93
29505;BME280;16452;54.174;12.092;2022-09-11T12:39:17;101634.94;;;22.20;88.35
29505;BME280;16452;54.174;12.092;2022-09-11T12:41:47;101639.78;;;22.35;86.92
29505;BME280;16452;54.174;12.092;2022-09-11T12:44:55;101633.66;;;22.54;85.74
29505;BME280;16452;54.174;12.092;2022-09-11T12:47:35;101636.91;;;22.48;84.79
29505;BME280;16452;54.174;12.092;2022-09-11T12:50:21;101631.66;;;22.37;84.74
29505;BME280;16452;54.174;12.092;2022-09-11T12:52:51;101639.59;;;22.27;85.46
29505;BME280;16452;54.174;12.092;2022-09-11T12:56:00;101634.94;;;22.20;85.33
29505;BME280;16452;54.174;12.092;2022-09-11T12:58:40;101635.72;;;22.01;86.37
29505;BME280;16452;54.174;12.092;2022-09-11T13:03:56;101636.09;;;21.96;87.52
29505;BME280;16452;54.174;12.092;2022-09-11T13:06:34;101624.22;;;21.70;86.53
29505;BME280;16452;54.174;12.092;2022-09-11T13:09:02;101632.13;;;21.91;87.06
29505;BME280;16452;54.174;12.092;2022-09-11T13:11:42;101629.94;;;21.96;86.75
29505;BME280;16452;54.174;12.092;2022-09-11T13:17:14;101631.91;;;22.24;87.20
29505;BME280;16452;54.174;12.092;2022-09-11T13:19:40;101637.28;;;21.83;87.92
29505;BME280;16452;54.174;12.092;2022-09-11T13:22:25;101632.66;;;22.36;86.57
29505;BME280;16452;54.174;12.092;2022-09-11T13:25:17;101638.50;;;22.30;85.42
29505;BME280;16452;54.174;12.092;2022-09-11T13:30:20;101627.13;;;22.58;84.32
29505;BME280;16452;54.174;12.092;2022-09-11T13:33:11;101626.63;;;22.74;83.69
29505;BME280;16452;54.174;12.092;2022-09-11T13:35:43;101636.16;;;22.86;84.41
29505;BME280;16452;54.174;12.092;2022-09-11T13:38:35;101629.59;;;23.00;83.62
29505;BME280;16452;54.174;12.092;2022-09-11T13:41:13;101632.25;;;23.00;83.64
29505;BME280;16452;54.174;12.092;2022-09-11T13:43:47;101628.47;;;22.83;83.30
29505;BME280;16452;54.174;12.092;2022-09-11T13:46:17;101628.69;;;22.70;83.97
29505;BME280;16452;54.174;12.092;2022-09-11T13:48:45;101625.22;;;22.79;83.67
29505;BME280;16452;54.174;12.092;2022-09-11T13:51:22;101627.47;;;22.74;83.62
29505;BME280;16452;54.174;12.092;2022-09-11T13:54:00;101634.38;;;22.56;85.06
29505;BME280;16452;54.174;12.092;2022-09-11T14:05:15;101628.63;;;22.41;85.39
29505;BME280;16452;54.174;12.092;2022-09-11T14:08:04;101626.50;;;22.35;86.09
29505;BME280;16452;54.174;12.092;2022-09-11T14:10:46;101629.81;;;21.97;86.71
29505;BME280;16452;54.174;12.092;2022-09-11T14:19:04;101634.25;;;22.18;84.78
29505;BME280;16452;54.174;12.092;2022-09-11T14:21:37;101632.41;;;21.88;86.62
29505;BME280;16452;54.174;12.092;2022-09-11T14:24:31;101635.88;;;22.09;86.20
29505;BME280;16452;54.174;12.092;2022-09-11T14:27:02;101638.03;;;21.94;87.74
29505;BME280;16452;54.174;12.092;2022-09-11T14:29:31;101637.34;;;21.71;88.83
29505;BME280;16452;54.174;12.092;2022-09-11T14:32:32;101641.34;;;21.45;89.52
29505;BME280;16452;54.174;12.092;2022-09-11T14:35:04;101634.94;;;21.68;88.74
29505;BME280;16452;54.174;12.092;2022-09-11T14:37:33;101630.34;;;21.70;87.57
29505;BME280;16452;54.174;12.092;2022-09-11T14:40:06;101632.47;;;21.56;88.21
29505;BME280;16452;54.174;12.092;2022-09-11T14:42:34;101630.94;;;21.53;88.37
29505;BME280;16452;54.174;12.092;2022-09-11T14:45:22;101635.91;;;21.47;89.08
29505;BME280;16452;54.174;12.092;2022-09-11T14:47:49;101640.72;;;21.53;89.22
29505;BME280;16452;54.174;12.092;2022-09-11T14:50:15;101641.41;;;21.34;89.69
29505;BME280;16452;54.174;12.092;2022-09-11T14:52:41;101634.97;;;21.48;88.67
29505;BME280;16452;54.174;12.092;2022-09-11T14:55:14;101643.47;;;21.51;88.97
29505;BME280;16452;54.174;12.092;2022-09-11T14:57:40;101638.09;;;21.10;90.13
29505;BME280;16452;54.174;12.092;2022-09-11T15:00:08;101639.19;;;21.39;90.25
29505;BME280;16452;54.174;12.092;2022-09-11T15:02:35;101636.91;;;21.14;90.71
29505;BME280;16452;54.174;12.092;2022-09-11T15:05:00;101639.94;;;21.41;89.70
29505;BME280;16452;54.174;12.092;2022-09-11T15:07:26;101638.78;;;21.55;88.40
29505;BME280;16452;54.174;12.092;2022-09-11T15:09:53;101640.59;;;21.54;89.56
29505;BME280;16452;54.174;12.092;2022-09-11T15:12:20;101638.41;;;21.27;89.66